Airfield :
LOGIN :

Register | Disclaimer

   EN    FR    IT 

 










Legend :    VFR   Marginal VFR   IFR   Intensive IFR   Very Intensive IFR
Visi :
Ceiling :
>= 8 km
>= 3000ft
5 to 8 km
1000 to 3000 ft
1500m to 5 km
500 to 1000 ft
800 to 1500m
200 to 500 ft
< 800m
< 200 ft
Symbols :   Thunderstorms  Fog  Heavy snow  Heavy precipitations  Wind > 20 kt
SIGMETs :     Misc.  Thunderstorms  Icing  Turbulence  Mountain Waves  Volcanic Ashes







- Airport Elevation : 1906 ft
- IATA code : INN


LOWI - Innsbruck

CURRENT METAR :
  • 291250Z 04007KT 350V120 9999 FEW080 30/06 Q1015 NOSIG

EXPIRED METARs :
  • 291220Z 08006KT 010V130 9999 FEW080 30/08 Q1015 NOSIG
  • 291150Z 09005KT 020V160 9999 FEW080 30/10 Q1015 NOSIG
  • 291120Z VRB04KT 9999 FEW080 29/08 Q1016 NOSIG
  • 291050Z 08004KT 010V140 9999 FEW080 28/11 Q1016 NOSIG
  • 291020Z VRB03KT 9999 FEW075 27/09 Q1017 NOSIG

TAF TAF LOWI
Valid from the 29 at 12:00 until the 30 at 12:00 UTC


291115Z 2912/3012 08008KT 9999 FEW080 TX31/2914Z TN15/3004Z
TEMPO 2913/2919 09010G20KT FEW070CB SCT100
BECMG 2918/2920 VRB02KT CAVOK
BECMG 3008/3010 09009KT 9999 FEW070
No reported NOTAMs for that airfield.



MET'MAP, your aeronautical weather chart ! - Copyright ORBIFLY December 2007 - Disclaimer

ORBIFLY MET'MAP TEAM :

Programming & Development : Alexandra Zaïnal
Concept & Development : Baudouin d'Aumeries
Co-Development & Prog : Marc-Olivier Méhu
Technical & hardware support : Manuel Goepfert

Contact : metmap@orbifly.com




SOURCES & CREDITS :

   NOAA